createdAt,value
2019-03-24T00:01:26.407Z,53.50
2019-03-24T00:03:54.994Z,47.27
2019-03-24T00:06:23.536Z,44.47
2019-03-24T00:08:52.033Z,45.90
2019-03-24T00:11:20.479Z,45.13
2019-03-24T00:13:48.923Z,41.43
2019-03-24T00:16:17.381Z,39.33
2019-03-24T00:18:45.911Z,41.93
2019-03-24T00:21:14.347Z,42.67
2019-03-24T00:23:42.817Z,37.63
2019-03-24T00:26:11.326Z,35.23
2019-03-24T00:28:39.791Z,33.73
2019-03-24T00:31:08.307Z,33.47
2019-03-24T00:33:36.778Z,37.70
2019-03-24T00:36:05.341Z,35.20
2019-03-24T00:38:33.811Z,32.90
2019-03-24T00:41:02.313Z,34.40
2019-03-24T00:43:30.763Z,33.57
2019-03-24T00:45:59.264Z,32.07
2019-03-24T00:48:27.722Z,34.40
2019-03-24T00:50:56.372Z,31.83
2019-03-24T00:53:24.911Z,30.83
2019-03-24T00:55:53.374Z,32.83
2019-03-24T00:58:21.827Z,30.10
2019-03-24T01:00:51.975Z,31.30
2019-03-24T01:03:20.510Z,31.77
2019-03-24T01:05:48.945Z,30.47
2019-03-24T01:08:17.543Z,28.57
2019-03-24T01:10:46.389Z,22.67
2019-03-24T01:13:15.250Z,22.20
2019-03-24T01:15:47.877Z,22.23
2019-03-24T01:18:14.075Z,22.80
2019-03-24T01:20:42.556Z,20.43
2019-03-24T01:23:11.082Z,21.17
2019-03-24T01:25:39.528Z,18.37
2019-03-24T01:28:08.031Z,17.20
2019-03-24T01:30:36.566Z,15.50
2019-03-24T01:33:05.303Z,15.17
2019-03-24T01:35:33.784Z,15.70
2019-03-24T01:38:02.351Z,15.77
2019-03-24T01:40:30.817Z,14.67
2019-03-24T01:42:59.410Z,13.77
2019-03-24T01:45:27.859Z,14.03
2019-03-24T01:47:56.283Z,13.60
2019-03-24T01:50:24.742Z,13.43
2019-03-24T01:52:53.176Z,13.03
2019-03-24T01:55:21.649Z,14.27
2019-03-24T01:57:50.092Z,13.10
2019-03-24T02:00:18.813Z,12.73
2019-03-24T02:02:47.392Z,12.17
2019-03-24T02:05:15.861Z,12.33
2019-03-24T02:07:44.368Z,12.47
2019-03-24T02:10:13.576Z,13.27
2019-03-24T02:12:42.015Z,13.63
2019-03-24T02:15:11.092Z,12.80
2019-03-24T02:17:39.612Z,12.77
2019-03-24T02:20:08.254Z,12.47
2019-03-24T02:22:36.674Z,15.70
2019-03-24T02:25:07.351Z,14.87
2019-03-24T02:27:35.804Z,13.73
2019-03-24T02:30:05.979Z,11.37
2019-03-24T02:32:34.421Z,12.77
2019-03-24T02:35:03.008Z,12.83
2019-03-24T02:37:31.463Z,11.87
2019-03-24T02:39:59.903Z,12.00
2019-03-24T02:42:28.466Z,11.97
2019-03-24T02:44:56.865Z,13.10
2019-03-24T02:47:25.313Z,12.57
2019-03-24T02:49:53.744Z,13.00
2019-03-24T02:52:22.221Z,15.17
2019-03-24T02:54:50.708Z,15.23
2019-03-24T02:57:19.176Z,15.00
2019-03-24T02:59:47.607Z,14.17
2019-03-24T03:02:16.050Z,12.30
2019-03-24T03:04:44.483Z,13.97
2019-03-24T03:07:12.934Z,13.53
2019-03-24T03:09:41.355Z,13.53
2019-03-24T03:12:09.795Z,13.10
2019-03-24T03:14:38.239Z,14.30
2019-03-24T03:17:06.697Z,12.00
2019-03-24T03:19:35.135Z,13.90
2019-03-24T03:22:03.659Z,14.03
2019-03-24T03:24:32.093Z,14.30
2019-03-24T03:27:00.524Z,16.27
2019-03-24T03:29:28.975Z,16.23
2019-03-24T03:31:57.400Z,16.37
2019-03-24T03:34:25.945Z,18.13
2019-03-24T03:36:54.477Z,16.00
2019-03-24T03:39:22.953Z,17.10
2019-03-24T03:41:51.376Z,16.23
2019-03-24T03:44:19.905Z,16.50
2019-03-24T03:46:52.983Z,15.97
2019-03-24T03:49:18.509Z,14.83
2019-03-24T03:51:46.940Z,15.97
2019-03-24T03:54:15.389Z,15.00
2019-03-24T03:56:43.817Z,14.30
2019-03-24T03:59:12.297Z,14.50
2019-03-24T04:01:41.332Z,13.83
2019-03-24T04:04:09.844Z,14.97
2019-03-24T04:06:38.284Z,15.80
2019-03-24T04:09:07.012Z,14.10
2019-03-24T04:11:35.511Z,15.77
2019-03-24T04:14:04.129Z,15.63
2019-03-24T04:16:32.542Z,14.83
2019-03-24T04:19:00.992Z,16.07
2019-03-24T04:21:29.426Z,16.13
2019-03-24T04:23:57.876Z,18.13
2019-03-24T04:26:26.311Z,18.40
2019-03-24T04:28:54.828Z,17.63
2019-03-24T04:31:23.287Z,18.20
2019-03-24T04:33:51.702Z,16.60
2019-03-24T04:36:20.155Z,17.13
2019-03-24T04:38:48.596Z,16.77
2019-03-24T04:41:17.131Z,17.93
2019-03-24T04:43:45.564Z,15.33
2019-03-24T04:46:14.019Z,19.97
2019-03-24T04:48:42.459Z,19.80
2019-03-24T04:51:10.902Z,18.53
2019-03-24T04:53:39.338Z,17.97
2019-03-24T04:56:07.803Z,18.70
2019-03-24T04:58:36.231Z,17.93
2019-03-24T05:01:04.824Z,17.17
2019-03-24T05:03:33.251Z,19.17
2019-03-24T05:06:01.783Z,16.40
2019-03-24T05:08:30.579Z,16.63
2019-03-24T05:10:59.027Z,16.40
2019-03-24T05:13:27.494Z,18.77
2019-03-24T05:15:55.950Z,17.53
2019-03-24T05:18:24.371Z,18.40
2019-03-24T05:20:52.839Z,22.57
2019-03-24T05:23:21.259Z,21.37
2019-03-24T05:25:49.691Z,19.70
2019-03-24T05:28:18.165Z,19.67
2019-03-24T05:30:46.590Z,20.73
2019-03-24T05:33:15.022Z,20.87
2019-03-24T05:35:43.483Z,24.10
2019-03-24T05:38:11.940Z,24.13
2019-03-24T05:40:40.427Z,21.77
2019-03-24T05:43:08.894Z,20.37
2019-03-24T05:45:37.331Z,22.57
2019-03-24T05:48:05.780Z,23.00
2019-03-24T05:50:34.211Z,21.40
2019-03-24T05:53:02.741Z,20.87
2019-03-24T05:55:31.176Z,20.13
2019-03-24T05:57:59.671Z,21.17
2019-03-24T06:00:28.186Z,22.57
2019-03-24T06:02:57.396Z,23.47
2019-03-24T06:05:26.001Z,22.50
2019-03-24T06:07:54.535Z,23.07
2019-03-24T06:10:22.958Z,23.30
2019-03-24T06:12:51.402Z,21.77
2019-03-24T06:15:19.882Z,22.73
2019-03-24T06:17:48.313Z,22.43
2019-03-24T06:20:16.778Z,24.53
2019-03-24T06:22:45.193Z,23.07
2019-03-24T06:25:13.748Z,22.27
2019-03-24T06:27:42.391Z,23.80
2019-03-24T06:30:11.027Z,22.67
2019-03-24T06:32:39.487Z,22.37
2019-03-24T06:35:08.178Z,22.87
2019-03-24T06:37:36.660Z,24.80
2019-03-24T06:40:06.934Z,24.13
2019-03-24T06:42:35.440Z,22.67
2019-03-24T06:45:06.214Z,24.40
2019-03-24T06:47:34.676Z,28.00
2019-03-24T06:50:03.763Z,22.77
2019-03-24T06:52:32.262Z,23.00
2019-03-24T06:55:00.802Z,22.37
2019-03-24T06:57:29.218Z,23.07
2019-03-24T06:59:57.716Z,21.80
2019-03-24T07:02:26.229Z,24.80
2019-03-24T07:04:56.953Z,24.13
2019-03-24T07:07:25.456Z,26.20
2019-03-24T07:09:53.887Z,21.97
2019-03-24T07:12:22.350Z,25.07
2019-03-24T07:14:50.779Z,26.07
2019-03-24T07:17:19.339Z,24.17
2019-03-24T07:19:47.762Z,22.97
2019-03-24T07:22:16.206Z,23.93
2019-03-24T07:24:44.659Z,24.37
2019-03-24T07:27:13.187Z,23.47
2019-03-24T07:29:41.654Z,23.83
2019-03-24T07:32:10.147Z,24.07
2019-03-24T07:34:38.652Z,23.53
2019-03-24T07:37:07.244Z,24.00
2019-03-24T07:39:35.679Z,24.57
2019-03-24T07:42:05.599Z,24.80
2019-03-24T07:44:34.211Z,26.47
2019-03-24T07:47:05.839Z,23.57
2019-03-24T07:49:34.259Z,26.07
2019-03-24T07:52:02.799Z,24.60
2019-03-24T07:54:31.372Z,23.20
2019-03-24T07:57:00.227Z,23.27
2019-03-24T07:59:28.750Z,24.77
2019-03-24T08:01:57.194Z,24.20
2019-03-24T08:04:25.658Z,24.47
2019-03-24T08:06:54.100Z,24.80
2019-03-24T08:09:22.603Z,27.90
2019-03-24T08:11:51.137Z,28.20
2019-03-24T08:14:19.592Z,26.93
2019-03-24T08:16:48.044Z,27.13
2019-03-24T08:19:16.613Z,25.60
2019-03-24T08:21:45.159Z,25.33
2019-03-24T08:24:13.638Z,24.57
2019-03-24T08:26:42.069Z,25.57
2019-03-24T08:29:10.556Z,24.80
2019-03-24T08:31:38.979Z,23.43
2019-03-24T08:34:07.423Z,23.40
2019-03-24T08:36:35.908Z,24.87
2019-03-24T08:39:06.238Z,23.63
2019-03-24T08:41:34.667Z,22.53
2019-03-24T08:44:03.259Z,22.90
2019-03-24T08:46:31.724Z,22.77
2019-03-24T08:49:00.176Z,23.53
2019-03-24T08:51:28.607Z,23.57
2019-03-24T08:53:57.143Z,23.60
2019-03-24T08:56:25.657Z,23.70
2019-03-24T08:58:54.099Z,23.73
2019-03-24T09:01:22.591Z,22.67
2019-03-24T09:03:51.031Z,24.13
2019-03-24T09:06:19.503Z,25.57
2019-03-24T09:08:48.976Z,24.03
2019-03-24T09:11:17.665Z,25.00
2019-03-24T09:13:46.123Z,25.23
2019-03-24T09:16:14.571Z,25.23
2019-03-24T09:18:51.976Z,24.70
2019-03-24T09:21:13.268Z,24.20
2019-03-24T09:23:41.728Z,23.13
2019-03-24T09:26:10.330Z,23.27
2019-03-24T09:28:38.912Z,21.80
2019-03-24T09:31:07.364Z,21.33
2019-03-24T09:33:35.799Z,20.83
2019-03-24T09:36:04.336Z,21.43
2019-03-24T09:38:32.772Z,20.60
2019-03-24T09:41:01.288Z,21.87
2019-03-24T09:43:29.736Z,23.57
2019-03-24T09:45:58.195Z,24.93
2019-03-24T09:48:26.693Z,25.57
2019-03-24T09:50:55.247Z,25.80
2019-03-24T09:53:23.696Z,25.10
2019-03-24T09:55:52.159Z,24.40
2019-03-24T09:58:20.650Z,24.87
2019-03-24T10:00:49.147Z,24.00
2019-03-24T10:03:17.640Z,22.30
2019-03-24T10:05:46.063Z,21.67
2019-03-24T10:08:14.603Z,21.77
2019-03-24T10:10:43.059Z,20.57
2019-03-24T10:13:11.557Z,20.30
2019-03-24T10:15:40.063Z,18.27
2019-03-24T10:18:08.560Z,17.37
2019-03-24T10:20:37.060Z,18.07
2019-03-24T10:23:05.600Z,16.93
2019-03-24T10:25:34.040Z,18.07
2019-03-24T10:28:02.656Z,17.67
2019-03-24T10:30:31.155Z,17.20
2019-03-24T10:32:59.619Z,17.23
2019-03-24T10:35:28.123Z,17.23
2019-03-24T10:37:56.590Z,16.70
2019-03-24T10:40:28.997Z,14.90
2019-03-24T10:42:55.375Z,15.13
2019-03-24T10:45:23.971Z,14.83
2019-03-24T10:47:52.495Z,15.10
2019-03-24T10:50:21.083Z,13.80
2019-03-24T10:52:49.683Z,14.47
2019-03-24T10:55:18.129Z,13.50
2019-03-24T10:57:46.592Z,13.53
2019-03-24T11:00:18.122Z,13.03
2019-03-24T11:02:46.667Z,12.93
2019-03-24T11:05:15.283Z,12.47
2019-03-24T11:07:43.719Z,12.83
2019-03-24T11:10:13.222Z,12.80
2019-03-24T11:12:41.727Z,13.40
2019-03-24T11:15:11.058Z,12.63
2019-03-24T11:17:39.569Z,12.70
2019-03-24T11:20:08.602Z,12.20
2019-03-24T11:22:37.111Z,11.43
2019-03-24T11:25:08.321Z,11.67
2019-03-24T11:27:36.914Z,10.30
2019-03-24T11:30:08.784Z,10.00
2019-03-24T11:32:37.662Z,8.30
2019-03-24T11:35:06.958Z,8.53
2019-03-24T11:37:35.403Z,9.10
2019-03-24T11:40:06.291Z,9.43
2019-03-24T11:42:34.759Z,8.70
2019-03-24T11:45:04.875Z,7.60
2019-03-24T11:47:33.388Z,7.77
2019-03-24T11:50:01.915Z,7.13
2019-03-24T11:52:30.363Z,8.80
2019-03-24T11:54:58.845Z,6.87
2019-03-24T11:57:27.348Z,6.80
2019-03-24T11:59:55.781Z,5.57
2019-03-24T12:02:24.244Z,5.77
2019-03-24T12:04:52.701Z,7.10
2019-03-24T12:07:21.288Z,7.07
2019-03-24T12:09:49.738Z,7.97
2019-03-24T12:12:18.475Z,8.30
2019-03-24T12:14:47.046Z,8.90
2019-03-24T12:17:15.593Z,12.10
2019-03-24T12:19:44.025Z,12.30
2019-03-24T12:22:12.493Z,11.63
2019-03-24T12:24:41.033Z,12.73
2019-03-24T12:27:09.499Z,10.37
2019-03-24T12:29:37.939Z,9.73
2019-03-24T12:32:06.640Z,10.17
2019-03-24T12:34:35.092Z,9.30
2019-03-24T12:37:03.568Z,9.13
2019-03-24T12:39:31.987Z,8.37
2019-03-24T12:42:00.509Z,8.83
2019-03-24T12:44:28.982Z,9.50
2019-03-24T12:46:57.416Z,9.93
2019-03-24T12:49:25.901Z,9.33
2019-03-24T12:51:54.336Z,9.10
2019-03-24T12:54:24.508Z,8.70
2019-03-24T12:56:53.159Z,10.27
2019-03-24T12:59:21.588Z,9.73
2019-03-24T13:01:50.031Z,10.40
2019-03-24T13:04:18.495Z,9.43
2019-03-24T13:06:46.931Z,8.97
2019-03-24T13:09:15.491Z,8.47
2019-03-24T13:11:44.008Z,8.13
2019-03-24T13:14:12.532Z,7.27
2019-03-24T13:16:41.060Z,6.80
2019-03-24T13:19:09.618Z,6.13
2019-03-24T13:21:38.131Z,6.43
2019-03-24T13:24:06.575Z,6.00
2019-03-24T13:26:35.138Z,5.63
2019-03-24T13:29:03.719Z,5.70
2019-03-24T13:31:32.156Z,5.00
2019-03-24T13:34:00.612Z,9.83
2019-03-24T13:36:29.109Z,4.93
2019-03-24T13:38:57.618Z,4.57
2019-03-24T13:41:26.071Z,4.27
2019-03-24T13:43:54.537Z,4.37
2019-03-24T13:46:23.066Z,4.03
2019-03-24T13:48:51.584Z,4.57
2019-03-24T13:51:20.205Z,4.40
2019-03-24T13:53:48.663Z,11.17
2019-03-24T13:56:17.130Z,4.53
2019-03-24T13:58:45.579Z,4.20
2019-03-24T14:01:14.856Z,4.43
2019-03-24T14:03:43.303Z,4.13
2019-03-24T14:06:11.815Z,3.90
2019-03-24T14:08:40.269Z,4.80
2019-03-24T14:11:08.814Z,4.67
2019-03-24T14:13:37.544Z,4.23
2019-03-24T14:16:06.135Z,3.93
2019-03-24T14:18:34.582Z,3.60
2019-03-24T14:21:03.163Z,4.07
2019-03-24T14:23:31.624Z,3.50
2019-03-24T14:26:00.081Z,3.50
2019-03-24T14:28:28.533Z,3.83
2019-03-24T14:30:57.117Z,3.60
2019-03-24T14:33:25.542Z,3.37
2019-03-24T14:35:54.114Z,3.50
2019-03-24T14:38:22.583Z,3.13
2019-03-24T14:40:51.059Z,3.93
2019-03-24T14:43:19.491Z,3.10
2019-03-24T14:45:54.215Z,3.50
2019-03-24T14:48:22.677Z,3.20
2019-03-24T14:50:54.687Z,4.80
2019-03-24T14:53:21.398Z,3.07
2019-03-24T14:55:49.928Z,3.00
2019-03-24T14:58:18.349Z,4.33
2019-03-24T15:00:47.172Z,3.43
2019-03-24T15:03:15.678Z,3.03
2019-03-24T15:05:44.228Z,3.40
2019-03-24T15:08:12.844Z,2.90
2019-03-24T15:10:41.289Z,4.90
2019-03-24T15:13:09.820Z,3.20
2019-03-24T15:15:38.319Z,3.17
2019-03-24T15:18:06.783Z,3.03
2019-03-24T15:20:35.230Z,2.90
2019-03-24T15:23:03.757Z,3.40
2019-03-24T15:25:32.243Z,2.80
2019-03-24T15:28:00.764Z,2.80
2019-03-24T15:30:29.301Z,2.80
2019-03-24T15:32:57.815Z,4.97
2019-03-24T15:35:26.278Z,3.70
2019-03-24T15:38:07.775Z,3.63
2019-03-24T15:40:25.274Z,3.23
2019-03-24T15:42:53.727Z,2.90
2019-03-24T15:45:22.323Z,4.47
2019-03-24T15:47:50.780Z,5.03
2019-03-24T15:50:19.225Z,4.97
2019-03-24T15:52:47.752Z,4.83
2019-03-24T15:55:16.202Z,3.90
2019-03-24T15:57:44.659Z,6.20
2019-03-24T16:00:14.436Z,2.93
2019-03-24T16:02:42.852Z,2.87
2019-03-24T16:05:11.473Z,2.70
2019-03-24T16:07:39.895Z,2.77
2019-03-24T16:10:08.544Z,3.33
2019-03-24T16:12:37.071Z,3.33
2019-03-24T16:15:07.499Z,3.53
2019-03-24T16:17:36.018Z,3.40
2019-03-24T16:20:06.640Z,3.20
2019-03-24T16:22:35.060Z,2.40
2019-03-24T16:25:04.366Z,2.20
2019-03-24T16:27:35.040Z,2.60
2019-03-24T16:30:03.687Z,2.53
2019-03-24T16:32:32.136Z,2.20
2019-03-24T16:35:00.598Z,3.87
2019-03-24T16:37:29.055Z,3.90
2019-03-24T16:39:57.584Z,9.53
2019-03-24T16:42:26.041Z,5.97
2019-03-24T16:44:54.494Z,2.90
2019-03-24T16:47:22.919Z,3.00
2019-03-24T16:49:51.400Z,3.00
2019-03-24T16:52:19.937Z,3.10
2019-03-24T16:54:48.399Z,2.70
2019-03-24T16:57:16.832Z,3.00
2019-03-24T16:59:45.278Z,2.70
2019-03-24T17:02:13.812Z,2.80
2019-03-24T17:04:42.244Z,2.60
2019-03-24T17:07:10.761Z,2.53
2019-03-24T17:09:39.188Z,2.40
2019-03-24T17:12:07.786Z,2.23
2019-03-24T17:14:36.283Z,2.17
2019-03-24T17:17:05.156Z,2.10
2019-03-24T17:19:33.575Z,2.50
2019-03-24T17:22:02.031Z,2.30
2019-03-24T17:24:30.469Z,2.03
2019-03-24T17:26:58.931Z,2.00
2019-03-24T17:29:27.364Z,2.90
2019-03-24T17:31:55.920Z,2.40
2019-03-24T17:34:24.423Z,2.47
2019-03-24T17:36:52.875Z,2.60
2019-03-24T17:39:21.002Z,3.27
2019-03-24T17:41:49.487Z,2.50
2019-03-24T17:44:17.574Z,3.03
2019-03-24T17:46:46.058Z,2.90
2019-03-24T17:49:14.550Z,3.90
2019-03-24T17:51:43.016Z,2.93
2019-03-24T17:54:11.563Z,2.80
2019-03-24T17:56:40.132Z,2.50
2019-03-24T17:59:08.600Z,3.60
2019-03-24T18:01:37.123Z,3.60
2019-03-24T18:04:05.566Z,3.47
2019-03-24T18:06:34.015Z,3.33
2019-03-24T18:09:02.816Z,2.80
2019-03-24T18:11:31.288Z,3.60
2019-03-24T18:13:59.858Z,4.40
2019-03-24T18:16:28.328Z,6.70
2019-03-24T18:18:56.817Z,9.47
2019-03-24T18:21:25.264Z,7.53
2019-03-24T18:23:53.859Z,5.50
2019-03-24T18:26:22.860Z,5.40
2019-03-24T18:28:51.303Z,11.47
2019-03-24T18:31:19.744Z,10.07
2019-03-24T18:33:48.224Z,7.63
2019-03-24T18:36:16.723Z,6.20
2019-03-24T18:38:45.253Z,5.50
2019-03-24T18:41:13.711Z,5.97
2019-03-24T18:43:42.362Z,3.80
2019-03-24T18:46:10.785Z,3.70
2019-03-24T18:48:39.351Z,3.00
2019-03-24T18:51:07.814Z,3.33
2019-03-24T18:53:36.522Z,3.77
2019-03-24T18:56:05.100Z,4.50
2019-03-24T18:58:33.582Z,4.70
2019-03-24T19:01:02.164Z,4.40
2019-03-24T19:03:30.649Z,4.53
2019-03-24T19:05:59.162Z,4.70
2019-03-24T19:08:27.571Z,8.27
2019-03-24T19:10:56.249Z,6.70
2019-03-24T19:13:24.748Z,7.33
2019-03-24T19:15:53.564Z,5.97
2019-03-24T19:18:22.003Z,5.93
2019-03-24T19:20:50.559Z,15.87
2019-03-24T19:23:19.051Z,3.87
2019-03-24T19:25:47.523Z,4.20
2019-03-24T19:28:16.019Z,4.30
2019-03-24T19:30:44.611Z,5.93
2019-03-24T19:33:13.057Z,6.90
2019-03-24T19:35:41.675Z,10.33
2019-03-24T19:38:10.206Z,6.47
2019-03-24T19:40:38.778Z,5.30
2019-03-24T19:43:07.199Z,4.53
2019-03-24T19:45:35.790Z,5.13
2019-03-24T19:48:04.606Z,4.57
2019-03-24T19:50:33.034Z,4.27
2019-03-24T19:53:01.489Z,4.60
2019-03-24T19:55:29.918Z,5.00
2019-03-24T19:58:02.243Z,4.30
2019-03-24T20:00:30.699Z,3.80
2019-03-24T20:02:59.267Z,3.87
2019-03-24T20:05:27.451Z,4.57
2019-03-24T20:07:56.137Z,3.60
2019-03-24T20:10:24.639Z,3.37
2019-03-24T20:12:53.168Z,3.67
2019-03-24T20:15:21.607Z,4.00
2019-03-24T20:17:50.161Z,4.00
2019-03-24T20:20:18.808Z,4.27
2019-03-24T20:22:56.025Z,4.23
2019-03-24T20:25:17.545Z,3.67
2019-03-24T20:27:46.034Z,4.23
2019-03-24T20:30:15.370Z,4.80
2019-03-24T20:32:43.903Z,4.43
2019-03-24T20:35:12.666Z,3.60
2019-03-24T20:37:41.150Z,4.00
2019-03-24T20:40:10.024Z,4.17
2019-03-24T20:42:38.493Z,7.63
2019-03-24T20:45:08.868Z,4.47
2019-03-24T20:47:37.353Z,5.43
2019-03-24T20:50:09.224Z,3.83
2019-03-24T20:52:37.690Z,3.87
2019-03-24T20:55:07.931Z,4.23
2019-03-24T20:57:36.400Z,4.07
2019-03-24T21:00:07.403Z,4.00
2019-03-24T21:02:36.006Z,4.70
2019-03-24T21:05:05.922Z,4.03
2019-03-24T21:07:34.449Z,4.23
2019-03-24T21:10:03.203Z,4.10
2019-03-24T21:12:31.626Z,4.77
2019-03-24T21:15:00.339Z,3.50
2019-03-24T21:17:28.868Z,3.63
2019-03-24T21:19:58.280Z,3.67
2019-03-24T21:22:26.740Z,3.53
2019-03-24T21:24:55.325Z,4.50
2019-03-24T21:27:23.762Z,3.93
2019-03-24T21:29:52.200Z,4.67
2019-03-24T21:32:20.647Z,4.47
2019-03-24T21:34:49.088Z,4.67
2019-03-24T21:37:17.543Z,4.47
2019-03-24T21:39:46.002Z,4.50
2019-03-24T21:42:14.522Z,6.50
2019-03-24T21:44:43.121Z,13.47
2019-03-24T21:47:11.579Z,4.67
2019-03-24T21:49:40.007Z,6.27
2019-03-24T21:52:08.576Z,5.23
2019-03-24T21:54:37.040Z,4.83
2019-03-24T21:57:05.551Z,5.47
2019-03-24T21:59:34.103Z,4.67
2019-03-24T22:02:02.968Z,4.67
2019-03-24T22:04:31.461Z,5.20
2019-03-24T22:06:59.911Z,4.90
2019-03-24T22:09:28.163Z,4.60
2019-03-24T22:11:56.607Z,4.63
2019-03-24T22:14:25.036Z,5.10
2019-03-24T22:16:53.503Z,5.53
2019-03-24T22:19:22.015Z,5.33
2019-03-24T22:21:50.442Z,5.37
2019-03-24T22:24:18.899Z,4.70
2019-03-24T22:26:47.404Z,5.37
2019-03-24T22:29:15.896Z,5.10
2019-03-24T22:31:44.076Z,4.77
2019-03-24T22:34:12.502Z,5.07
2019-03-24T22:36:40.956Z,4.83
2019-03-24T22:39:09.474Z,4.33
2019-03-24T22:41:37.899Z,4.60
2019-03-24T22:44:06.040Z,5.07
2019-03-24T22:46:34.463Z,4.90
2019-03-24T22:49:02.899Z,4.83
2019-03-24T22:51:31.351Z,4.70
2019-03-24T22:54:03.494Z,4.40
2019-03-24T22:56:29.955Z,4.17
2019-03-24T22:58:58.444Z,4.73
2019-03-24T23:01:27.060Z,4.53
2019-03-24T23:03:55.682Z,4.00
2019-03-24T23:06:24.184Z,4.30
2019-03-24T23:08:52.619Z,4.37
2019-03-24T23:11:21.049Z,5.80
2019-03-24T23:13:49.504Z,4.63
2019-03-24T23:16:18.011Z,4.30
2019-03-24T23:18:46.466Z,4.40
2019-03-24T23:21:14.936Z,4.10
2019-03-24T23:23:43.356Z,4.97
2019-03-24T23:26:11.804Z,5.10
2019-03-24T23:28:40.308Z,5.20
2019-03-24T23:31:08.941Z,4.93
2019-03-24T23:33:37.369Z,5.70
2019-03-24T23:36:05.864Z,5.53
2019-03-24T23:38:34.282Z,5.23
2019-03-24T23:41:02.763Z,5.67
2019-03-24T23:43:31.273Z,5.27
2019-03-24T23:45:59.798Z,4.67
2019-03-24T23:48:29.196Z,5.03
2019-03-24T23:50:57.647Z,4.40
2019-03-24T23:53:26.071Z,4.27
2019-03-24T23:55:54.528Z,4.83
2019-03-24T23:58:22.954Z,4.17
